sensor_id;sensor_type;location;lat;lon;timestamp;pressure;altitude;pressure_sealevel;temperature;humidity
78562;BME280;68963;52.138;5.446;2023-04-03T00:00:49;103199.44;;;2.80;72.54
78562;BME280;68963;52.138;5.446;2023-04-03T00:03:17;103208.16;;;2.79;72.36
78562;BME280;68963;52.138;5.446;2023-04-03T00:05:45;103204.84;;;2.76;72.40
78562;BME280;68963;52.138;5.446;2023-04-03T00:08:12;103218.06;;;2.73;72.53
78562;BME280;68963;52.138;5.446;2023-04-03T00:10:39;103220.66;;;2.73;73.00
78562;BME280;68963;52.138;5.446;2023-04-03T00:13:06;103219.78;;;2.72;72.62
78562;BME280;68963;52.138;5.446;2023-04-03T00:15:34;103227.69;;;2.71;73.36
78562;BME280;68963;52.138;5.446;2023-04-03T00:18:02;103229.50;;;2.69;73.13
78562;BME280;68963;52.138;5.446;2023-04-03T00:20:28;103223.56;;;2.66;73.26
78562;BME280;68963;52.138;5.446;2023-04-03T00:22:55;103221.94;;;2.64;73.35
78562;BME280;68963;52.138;5.446;2023-04-03T00:25:22;103222.03;;;2.62;72.80
78562;BME280;68963;52.138;5.446;2023-04-03T00:27:49;103221.25;;;2.60;73.33
78562;BME280;68963;52.138;5.446;2023-04-03T00:30:18;103226.59;;;2.57;73.19
78562;BME280;68963;52.138;5.446;2023-04-03T00:32:45;103226.84;;;2.53;73.93
78562;BME280;68963;52.138;5.446;2023-04-03T00:35:11;103221.78;;;2.50;73.92
78562;BME280;68963;52.138;5.446;2023-04-03T00:37:42;103226.25;;;2.48;74.02
78562;BME280;68963;52.138;5.446;2023-04-03T00:40:09;103229.81;;;2.45;74.00
78562;BME280;68963;52.138;5.446;2023-04-03T00:42:37;103228.28;;;2.41;74.11
78562;BME280;68963;52.138;5.446;2023-04-03T00:47:31;103237.03;;;2.40;74.41
78562;BME280;68963;52.138;5.446;2023-04-03T00:49:58;103237.91;;;2.39;74.36
78562;BME280;68963;52.138;5.446;2023-04-03T00:52:28;103236.31;;;2.36;74.56
78562;BME280;68963;52.138;5.446;2023-04-03T00:55:00;103240.75;;;2.34;75.06
78562;BME280;68963;52.138;5.446;2023-04-03T00:57:30;103233.19;;;2.30;75.24
78562;BME280;68963;52.138;5.446;2023-04-03T01:00:01;103241.81;;;2.30;75.11
78562;BME280;68963;52.138;5.446;2023-04-03T01:02:29;103239.44;;;2.26;75.78
78562;BME280;68963;52.138;5.446;2023-04-03T01:04:56;103242.97;;;2.25;75.54
78562;BME280;68963;52.138;5.446;2023-04-03T01:07:26;103252.59;;;2.23;75.81
78562;BME280;68963;52.138;5.446;2023-04-03T01:09:58;103247.41;;;2.23;75.34
78562;BME280;68963;52.138;5.446;2023-04-03T01:12:30;103257.09;;;2.19;75.91
78562;BME280;68963;52.138;5.446;2023-04-03T01:15:08;103247.91;;;2.12;76.06
78562;BME280;68963;52.138;5.446;2023-04-03T01:17:48;103248.00;;;2.10;76.17
78562;BME280;68963;52.138;5.446;2023-04-03T01:28:23;103249.25;;;2.02;77.47
78562;BME280;68963;52.138;5.446;2023-04-03T01:33:24;103254.81;;;1.94;77.34
78562;BME280;68963;52.138;5.446;2023-04-03T01:35:51;103254.06;;;1.92;77.46
78562;BME280;68963;52.138;5.446;2023-04-03T01:38:18;103245.34;;;1.93;77.54
78562;BME280;68963;52.138;5.446;2023-04-03T01:40:44;103250.63;;;1.91;77.44
78562;BME280;68963;52.138;5.446;2023-04-03T01:43:11;103248.06;;;1.90;78.07
78562;BME280;68963;52.138;5.446;2023-04-03T01:45:37;103246.44;;;1.87;78.45
78562;BME280;68963;52.138;5.446;2023-04-03T01:48:04;103243.84;;;1.87;78.46
78562;BME280;68963;52.138;5.446;2023-04-03T01:50:30;103250.19;;;1.82;78.55
78562;BME280;68963;52.138;5.446;2023-04-03T01:52:57;103244.34;;;1.77;78.41
78562;BME280;68963;52.138;5.446;2023-04-03T01:55:23;103245.50;;;1.71;78.76
78562;BME280;68963;52.138;5.446;2023-04-03T01:57:50;103246.41;;;1.70;79.28
78562;BME280;68963;52.138;5.446;2023-04-03T02:00:17;103249.91;;;1.69;78.81
78562;BME280;68963;52.138;5.446;2023-04-03T02:02:43;103245.63;;;1.68;79.66
78562;BME280;68963;52.138;5.446;2023-04-03T02:05:10;103256.00;;;1.68;79.87
78562;BME280;68963;52.138;5.446;2023-04-03T02:07:36;103253.63;;;1.63;80.14
78562;BME280;68963;52.138;5.446;2023-04-03T02:10:03;103251.16;;;1.60;80.05
78562;BME280;68963;52.138;5.446;2023-04-03T02:12:30;103259.09;;;1.57;80.26
78562;BME280;68963;52.138;5.446;2023-04-03T02:14:56;103258.38;;;1.54;80.28
78562;BME280;68963;52.138;5.446;2023-04-03T02:17:23;103256.63;;;1.54;80.52
78562;BME280;68963;52.138;5.446;2023-04-03T02:19:49;103270.66;;;1.50;80.76
78562;BME280;68963;52.138;5.446;2023-04-03T02:22:16;103269.13;;;1.46;81.15
78562;BME280;68963;52.138;5.446;2023-04-03T02:24:43;103263.19;;;1.44;80.78
78562;BME280;68963;52.138;5.446;2023-04-03T02:27:09;103266.66;;;1.43;81.69
78562;BME280;68963;52.138;5.446;2023-04-03T02:29:36;103263.31;;;1.41;81.86
78562;BME280;68963;52.138;5.446;2023-04-03T02:32:02;103272.19;;;1.35;81.67
78562;BME280;68963;52.138;5.446;2023-04-03T02:34:29;103254.94;;;1.34;82.49
78562;BME280;68963;52.138;5.446;2023-04-03T02:36:55;103261.75;;;1.37;82.01
78562;BME280;68963;52.138;5.446;2023-04-03T02:39:22;103262.84;;;1.31;82.52
78562;BME280;68963;52.138;5.446;2023-04-03T02:41:48;103260.38;;;1.28;82.87
78562;BME280;68963;52.138;5.446;2023-04-03T02:44:15;103266.00;;;1.19;83.21
78562;BME280;68963;52.138;5.446;2023-04-03T02:46:41;103273.06;;;1.15;83.62
78562;BME280;68963;52.138;5.446;2023-04-03T02:49:08;103271.41;;;1.14;83.48
78562;BME280;68963;52.138;5.446;2023-04-03T02:51:34;103273.84;;;1.17;83.48
78562;BME280;68963;52.138;5.446;2023-04-03T02:54:01;103264.50;;;1.13;83.90
78562;BME280;68963;52.138;5.446;2023-04-03T02:56:27;103275.66;;;1.15;83.88
78562;BME280;68963;52.138;5.446;2023-04-03T02:58:54;103275.72;;;1.14;83.84
78562;BME280;68963;52.138;5.446;2023-04-03T03:01:20;103284.50;;;1.11;84.13
78562;BME280;68963;52.138;5.446;2023-04-03T03:03:47;103289.69;;;1.11;84.63
78562;BME280;68963;52.138;5.446;2023-04-03T03:06:15;103293.06;;;1.13;84.36
78562;BME280;68963;52.138;5.446;2023-04-03T03:08:42;103289.81;;;1.08;84.59
78562;BME280;68963;52.138;5.446;2023-04-03T03:11:09;103291.50;;;1.09;84.91
78562;BME280;68963;52.138;5.446;2023-04-03T03:13:36;103291.69;;;1.05;84.82
78562;BME280;68963;52.138;5.446;2023-04-03T03:16:03;103304.69;;;1.05;85.14
78562;BME280;68963;52.138;5.446;2023-04-03T03:18:30;103296.09;;;1.03;84.96
78562;BME280;68963;52.138;5.446;2023-04-03T03:20:58;103305.59;;;1.04;84.90
78562;BME280;68963;52.138;5.446;2023-04-03T03:23:25;103309.06;;;1.03;85.15
78562;BME280;68963;52.138;5.446;2023-04-03T03:26:03;103303.03;;;1.02;85.21
78562;BME280;68963;52.138;5.446;2023-04-03T03:28:31;103308.34;;;0.99;85.38
78562;BME280;68963;52.138;5.446;2023-04-03T03:30:58;103299.84;;;0.95;85.86
78562;BME280;68963;52.138;5.446;2023-04-03T03:33:25;103305.13;;;0.94;85.62
78562;BME280;68963;52.138;5.446;2023-04-03T03:35:53;103304.28;;;0.93;86.22
78562;BME280;68963;52.138;5.446;2023-04-03T03:38:20;103309.59;;;0.90;86.07
78562;BME280;68963;52.138;5.446;2023-04-03T03:40:47;103309.69;;;0.89;86.05
78562;BME280;68963;52.138;5.446;2023-04-03T03:43:15;103314.91;;;0.87;86.37
78562;BME280;68963;52.138;5.446;2023-04-03T03:45:42;103306.41;;;0.84;86.19
78562;BME280;68963;52.138;5.446;2023-04-03T03:48:09;103303.88;;;0.82;86.65
78562;BME280;68963;52.138;5.446;2023-04-03T03:50:35;103313.34;;;0.83;86.68
78562;BME280;68963;52.138;5.446;2023-04-03T03:53:02;103309.06;;;0.82;87.00
78562;BME280;68963;52.138;5.446;2023-04-03T03:55:28;103310.88;;;0.80;86.94
78562;BME280;68963;52.138;5.446;2023-04-03T03:57:55;103310.88;;;0.80;87.62
78562;BME280;68963;52.138;5.446;2023-04-03T04:00:22;103316.06;;;0.80;87.64
78562;BME280;68963;52.138;5.446;2023-04-03T04:02:48;103318.66;;;0.80;87.53
78562;BME280;68963;52.138;5.446;2023-04-03T04:05:15;103313.59;;;0.77;87.66
78562;BME280;68963;52.138;5.446;2023-04-03T04:07:42;103313.59;;;0.77;87.45
78562;BME280;68963;52.138;5.446;2023-04-03T04:10:08;103317.06;;;0.78;87.95
78562;BME280;68963;52.138;5.446;2023-04-03T04:12:35;103319.78;;;0.75;87.67
78562;BME280;68963;52.138;5.446;2023-04-03T04:15:02;103321.53;;;0.74;87.72
78562;BME280;68963;52.138;5.446;2023-04-03T04:17:29;103326.75;;;0.72;87.91
78562;BME280;68963;52.138;5.446;2023-04-03T04:19:56;103327.72;;;0.70;88.01
78562;BME280;68963;52.138;5.446;2023-04-03T04:22:22;103331.34;;;0.66;87.95
78562;BME280;68963;52.138;5.446;2023-04-03T04:24:48;103333.22;;;0.62;87.76
78562;BME280;68963;52.138;5.446;2023-04-03T04:27:15;103325.63;;;0.58;88.33
78562;BME280;68963;52.138;5.446;2023-04-03T04:29:42;103337.75;;;0.57;88.19
78562;BME280;68963;52.138;5.446;2023-04-03T04:32:08;103335.16;;;0.57;88.37
78562;BME280;68963;52.138;5.446;2023-04-03T04:34:35;103328.28;;;0.56;88.69
78562;BME280;68963;52.138;5.446;2023-04-03T04:37:01;103339.53;;;0.55;88.85
78562;BME280;68963;52.138;5.446;2023-04-03T04:39:28;103330.03;;;0.56;89.31
78562;BME280;68963;52.138;5.446;2023-04-03T04:41:55;103340.53;;;0.53;89.37
78562;BME280;68963;52.138;5.446;2023-04-03T04:44:21;103341.50;;;0.50;89.10
78562;BME280;68963;52.138;5.446;2023-04-03T04:46:48;103339.00;;;0.47;89.26
78562;BME280;68963;52.138;5.446;2023-04-03T04:49:14;103347.63;;;0.47;89.53
78562;BME280;68963;52.138;5.446;2023-04-03T04:51:41;103344.19;;;0.47;89.31
78562;BME280;68963;52.138;5.446;2023-04-03T04:54:17;103348.53;;;0.46;89.85
78562;BME280;68963;52.138;5.446;2023-04-03T04:56:43;103341.72;;;0.44;89.89
78562;BME280;68963;52.138;5.446;2023-04-03T04:59:10;103340.16;;;0.40;89.93
78562;BME280;68963;52.138;5.446;2023-04-03T05:01:37;103340.25;;;0.37;90.03
78562;BME280;68963;52.138;5.446;2023-04-03T05:04:03;103348.19;;;0.34;90.05
78562;BME280;68963;52.138;5.446;2023-04-03T05:06:30;103349.03;;;0.34;90.34
78562;BME280;68963;52.138;5.446;2023-04-03T05:08:59;103349.97;;;0.32;90.82
78562;BME280;68963;52.138;5.446;2023-04-03T05:11:26;103348.34;;;0.29;90.40
78562;BME280;68963;52.138;5.446;2023-04-03T05:13:53;103347.47;;;0.30;90.86
78562;BME280;68963;52.138;5.446;2023-04-03T05:16:19;103353.53;;;0.29;91.24
78562;BME280;68963;52.138;5.446;2023-04-03T05:18:46;103351.81;;;0.30;91.21
78562;BME280;68963;52.138;5.446;2023-04-03T05:21:13;103362.09;;;0.31;91.16
78562;BME280;68963;52.138;5.446;2023-04-03T05:23:39;103362.03;;;0.33;91.03
78562;BME280;68963;52.138;5.446;2023-04-03T05:26:06;103361.16;;;0.34;90.97
78562;BME280;68963;52.138;5.446;2023-04-03T05:28:32;103366.38;;;0.32;90.95
78562;BME280;68963;52.138;5.446;2023-04-03T05:30:59;103369.03;;;0.31;90.92
78562;BME280;68963;52.138;5.446;2023-04-03T05:33:26;103376.84;;;0.29;91.14
78562;BME280;68963;52.138;5.446;2023-04-03T05:35:53;103367.38;;;0.30;91.25
78562;BME280;68963;52.138;5.446;2023-04-03T05:38:20;103371.63;;;0.31;91.08
78562;BME280;68963;52.138;5.446;2023-04-03T05:40:47;103376.84;;;0.29;91.10
78562;BME280;68963;52.138;5.446;2023-04-03T05:43:14;103371.63;;;0.31;91.34
78562;BME280;68963;52.138;5.446;2023-04-03T05:45:41;103372.41;;;0.33;91.48
78562;BME280;68963;52.138;5.446;2023-04-03T05:48:10;103384.47;;;0.34;91.75
78562;BME280;68963;52.138;5.446;2023-04-03T05:50:37;103389.47;;;0.38;91.23
78562;BME280;68963;52.138;5.446;2023-04-03T05:53:15;103385.88;;;0.42;91.35
78562;BME280;68963;52.138;5.446;2023-04-03T05:55:44;103390.03;;;0.46;90.62
78562;BME280;68963;52.138;5.446;2023-04-03T05:58:10;103394.25;;;0.49;90.98
78562;BME280;68963;52.138;5.446;2023-04-03T06:00:37;103394.16;;;0.52;91.09
78562;BME280;68963;52.138;5.446;2023-04-03T06:03:03;103389.63;;;0.57;90.83
78562;BME280;68963;52.138;5.446;2023-04-03T06:05:30;103401.50;;;0.63;90.60
78562;BME280;68963;52.138;5.446;2023-04-03T06:07:57;103404.69;;;0.69;90.57
78562;BME280;68963;52.138;5.446;2023-04-03T06:10:24;103401.06;;;0.73;90.41
78562;BME280;68963;52.138;5.446;2023-04-03T06:12:50;103403.50;;;0.78;90.09
78562;BME280;68963;52.138;5.446;2023-04-03T06:15:17;103397.22;;;0.84;90.21
78562;BME280;68963;52.138;5.446;2023-04-03T06:17:44;103400.28;;;0.93;89.93
78562;BME280;68963;52.138;5.446;2023-04-03T06:20:11;103398.41;;;0.97;89.71
78562;BME280;68963;52.138;5.446;2023-04-03T06:22:38;103406.09;;;1.00;89.67
78562;BME280;68963;52.138;5.446;2023-04-03T06:25:05;103399.91;;;1.03;89.24
78562;BME280;68963;52.138;5.446;2023-04-03T06:27:32;103403.22;;;1.06;89.66
78562;BME280;68963;52.138;5.446;2023-04-03T06:29:59;103409.94;;;1.12;88.77
78562;BME280;68963;52.138;5.446;2023-04-03T06:32:25;103413.16;;;1.17;89.13
78562;BME280;68963;52.138;5.446;2023-04-03T06:34:52;103406.91;;;1.23;89.13
78562;BME280;68963;52.138;5.446;2023-04-03T06:37:21;103411.81;;;1.29;88.32
78562;BME280;68963;52.138;5.446;2023-04-03T06:39:48;103420.41;;;1.31;88.38
78562;BME280;68963;52.138;5.446;2023-04-03T06:42:15;103420.16;;;1.37;87.97
78562;BME280;68963;52.138;5.446;2023-04-03T06:44:42;103421.63;;;1.42;87.84
78562;BME280;68963;52.138;5.446;2023-04-03T06:47:16;103420.59;;;1.47;87.28
78562;BME280;68963;52.138;5.446;2023-04-03T06:49:43;103422.03;;;1.54;87.07
78562;BME280;68963;52.138;5.446;2023-04-03T06:52:10;103422.53;;;1.62;87.44
78562;BME280;68963;52.138;5.446;2023-04-03T06:54:39;103426.44;;;1.72;86.56
78562;BME280;68963;52.138;5.446;2023-04-03T06:57:06;103434.09;;;1.75;86.25
78562;BME280;68963;52.138;5.446;2023-04-03T06:59:34;103438.97;;;1.83;86.60
78562;BME280;68963;52.138;5.446;2023-04-03T07:02:01;103429.94;;;1.91;86.27
78562;BME280;68963;52.138;5.446;2023-04-03T07:04:27;103440.75;;;2.01;85.48
78562;BME280;68963;52.138;5.446;2023-04-03T07:06:54;103439.50;;;2.10;85.38
78562;BME280;68963;52.138;5.446;2023-04-03T07:09:21;103444.31;;;2.19;84.49
78562;BME280;68963;52.138;5.446;2023-04-03T07:11:48;103446.69;;;2.24;83.69
78562;BME280;68963;52.138;5.446;2023-04-03T07:14:14;103452.25;;;2.35;83.75
78562;BME280;68963;52.138;5.446;2023-04-03T07:16:41;103453.88;;;2.37;83.24
78562;BME280;68963;52.138;5.446;2023-04-03T07:19:08;103449.28;;;2.42;82.82
78562;BME280;68963;52.138;5.446;2023-04-03T07:21:35;103455.19;;;2.46;82.30
78562;BME280;68963;52.138;5.446;2023-04-03T07:24:02;103454.56;;;2.60;82.56
78562;BME280;68963;52.138;5.446;2023-04-03T07:26:28;103453.38;;;2.67;81.05
78562;BME280;68963;52.138;5.446;2023-04-03T07:28:55;103460.81;;;2.75;81.56
78562;BME280;68963;52.138;5.446;2023-04-03T07:31:22;103464.69;;;2.85;81.26
78562;BME280;68963;52.138;5.446;2023-04-03T07:33:49;103461.59;;;2.96;80.93
78562;BME280;68963;52.138;5.446;2023-04-03T07:36:18;103453.25;;;3.06;81.22
78562;BME280;68963;52.138;5.446;2023-04-03T07:38:45;103460.47;;;3.19;81.56
78562;BME280;68963;52.138;5.446;2023-04-03T07:41:14;103468.50;;;3.31;80.63
78562;BME280;68963;52.138;5.446;2023-04-03T07:43:41;103471.28;;;3.28;78.31
78562;BME280;68963;52.138;5.446;2023-04-03T07:46:08;103472.88;;;3.31;77.76
78562;BME280;68963;52.138;5.446;2023-04-03T07:48:35;103470.81;;;3.37;77.88
78562;BME280;68963;52.138;5.446;2023-04-03T07:51:03;103466.53;;;3.36;78.04
78562;BME280;68963;52.138;5.446;2023-04-03T07:53:31;103474.06;;;3.43;76.52
78562;BME280;68963;52.138;5.446;2023-04-03T07:55:58;103469.22;;;3.52;76.92
78562;BME280;68963;52.138;5.446;2023-04-03T07:58:25;103478.41;;;3.59;75.12
78562;BME280;68963;52.138;5.446;2023-04-03T08:00:53;103478.66;;;3.55;74.87
78562;BME280;68963;52.138;5.446;2023-04-03T08:03:19;103477.78;;;3.72;75.17
78562;BME280;68963;52.138;5.446;2023-04-03T08:05:48;103473.19;;;3.77;73.83
78562;BME280;68963;52.138;5.446;2023-04-03T08:08:16;103474.25;;;3.90;74.35
78562;BME280;68963;52.138;5.446;2023-04-03T08:10:50;103472.94;;;3.99;72.87
78562;BME280;68963;52.138;5.446;2023-04-03T08:13:18;103476.06;;;4.05;71.11
78562;BME280;68963;52.138;5.446;2023-04-03T08:15:45;103478.00;;;4.02;70.53
78562;BME280;68963;52.138;5.446;2023-04-03T08:18:12;103477.66;;;4.08;71.08
78562;BME280;68963;52.138;5.446;2023-04-03T08:20:39;103479.03;;;4.15;70.19
78562;BME280;68963;52.138;5.446;2023-04-03T08:23:07;103479.56;;;4.22;67.94
78562;BME280;68963;52.138;5.446;2023-04-03T08:25:39;103484.47;;;4.28;69.17
78562;BME280;68963;52.138;5.446;2023-04-03T08:28:07;103474.59;;;4.33;67.92
78562;BME280;68963;52.138;5.446;2023-04-03T08:30:34;103478.47;;;4.42;68.01
78562;BME280;68963;52.138;5.446;2023-04-03T08:33:01;103490.19;;;4.34;65.82
78562;BME280;68963;52.138;5.446;2023-04-03T08:35:29;103489.75;;;4.26;64.18
78562;BME280;68963;52.138;5.446;2023-04-03T08:37:55;103488.91;;;4.42;65.59
78562;BME280;68963;52.138;5.446;2023-04-03T08:40:22;103491.16;;;4.49;62.00
78562;BME280;68963;52.138;5.446;2023-04-03T08:46:11;103498.03;;;4.82;59.92
78562;BME280;68963;52.138;5.446;2023-04-03T08:48:41;103491.06;;;4.82;60.36
78562;BME280;68963;52.138;5.446;2023-04-03T08:51:17;103495.38;;;4.83;59.83
78562;BME280;68963;52.138;5.446;2023-04-03T08:56:18;103492.63;;;5.17;56.01
78562;BME280;68963;52.138;5.446;2023-04-03T08:58:50;103499.38;;;5.21;54.94
78562;BME280;68963;52.138;5.446;2023-04-03T09:01:29;103497.47;;;5.39;54.00
78562;BME280;68963;52.138;5.446;2023-04-03T09:03:57;103488.72;;;5.40;54.96
78562;BME280;68963;52.138;5.446;2023-04-03T09:06:26;103485.66;;;5.47;52.74
78562;BME280;68963;52.138;5.446;2023-04-03T09:19:53;103488.66;;;5.86;49.04
78562;BME280;68963;52.138;5.446;2023-04-03T09:22:23;103488.09;;;5.95;47.10
78562;BME280;68963;52.138;5.446;2023-04-03T09:25:15;103484.66;;;5.94;47.93
78562;BME280;68963;52.138;5.446;2023-04-03T09:27:43;103482.59;;;5.99;49.15
78562;BME280;68963;52.138;5.446;2023-04-03T09:30:14;103483.63;;;5.97;45.84
78562;BME280;68963;52.138;5.446;2023-04-03T09:32:45;103478.31;;;5.98;45.18
78562;BME280;68963;52.138;5.446;2023-04-03T09:40:39;103472.44;;;6.23;43.74
78562;BME280;68963;52.138;5.446;2023-04-03T09:43:26;103474.09;;;6.39;45.18
78562;BME280;68963;52.138;5.446;2023-04-03T09:45:53;103473.13;;;6.54;43.83
78562;BME280;68963;52.138;5.446;2023-04-03T09:48:23;103470.97;;;6.61;43.12
78562;BME280;68963;52.138;5.446;2023-04-03T09:59:05;103456.84;;;6.63;43.12
78562;BME280;68963;52.138;5.446;2023-04-03T10:01:38;103447.25;;;6.76;45.35
78562;BME280;68963;52.138;5.446;2023-04-03T10:04:15;103444.91;;;6.86;45.30
78562;BME280;68963;52.138;5.446;2023-04-03T10:06:54;103449.31;;;6.98;43.17
78562;BME280;68963;52.138;5.446;2023-04-03T10:14:36;103438.66;;;7.01;40.88
78562;BME280;68963;52.138;5.446;2023-04-03T10:17:17;103444.53;;;7.05;40.36
78562;BME280;68963;52.138;5.446;2023-04-03T10:34:50;103416.19;;;7.37;40.67
78562;BME280;68963;52.138;5.446;2023-04-03T10:37:40;103410.13;;;7.49;43.09
78562;BME280;68963;52.138;5.446;2023-04-03T10:40:22;103400.47;;;7.63;41.10
78562;BME280;68963;52.138;5.446;2023-04-03T10:42:53;103399.09;;;7.57;41.21
78562;BME280;68963;52.138;5.446;2023-04-03T10:48:10;103390.78;;;7.76;39.67
78562;BME280;68963;52.138;5.446;2023-04-03T10:58:39;103384.38;;;7.93;40.69
78562;BME280;68963;52.138;5.446;2023-04-03T11:01:08;103384.69;;;8.01;41.78
78562;BME280;68963;52.138;5.446;2023-04-03T11:03:43;103381.38;;;8.23;41.23
78562;BME280;68963;52.138;5.446;2023-04-03T11:06:14;103376.31;;;8.33;40.07
78562;BME280;68963;52.138;5.446;2023-04-03T11:08:45;103371.63;;;8.25;39.05
78562;BME280;68963;52.138;5.446;2023-04-03T11:11:17;103376.78;;;8.14;38.49
78562;BME280;68963;52.138;5.446;2023-04-03T11:13:53;103372.22;;;8.29;39.93
78562;BME280;68963;52.138;5.446;2023-04-03T11:16:25;103368.25;;;8.23;39.61
78562;BME280;68963;52.138;5.446;2023-04-03T11:18:57;103367.28;;;8.24;40.41
78562;BME280;68963;52.138;5.446;2023-04-03T11:21:29;103370.13;;;8.21;40.39
78562;BME280;68963;52.138;5.446;2023-04-03T11:23:59;103374.41;;;8.48;41.88
78562;BME280;68963;52.138;5.446;2023-04-03T11:26:30;103366.31;;;8.51;38.35
78562;BME280;68963;52.138;5.446;2023-04-03T11:29:03;103364.72;;;8.48;40.19
78562;BME280;68963;52.138;5.446;2023-04-03T11:31:47;103385.97;;;8.69;39.80
78562;BME280;68963;52.138;5.446;2023-04-03T11:37:00;103374.38;;;8.71;41.04
78562;BME280;68963;52.138;5.446;2023-04-03T11:39:33;103371.25;;;8.66;39.79
78562;BME280;68963;52.138;5.446;2023-04-03T11:42:39;103355.31;;;8.57;39.73
78562;BME280;68963;52.138;5.446;2023-04-03T11:47:52;103361.81;;;8.64;39.50
78562;BME280;68963;52.138;5.446;2023-04-03T12:08:43;103351.16;;;9.58;41.12
78562;BME280;68963;52.138;5.446;2023-04-03T12:19:29;103331.50;;;9.17;39.38
78562;BME280;68963;52.138;5.446;2023-04-03T12:22:13;103333.19;;;9.18;37.53
78562;BME280;68963;52.138;5.446;2023-04-03T12:24:42;103323.03;;;9.25;38.58
78562;BME280;68963;52.138;5.446;2023-04-03T12:27:30;103315.75;;;9.29;39.09
78562;BME280;68963;52.138;5.446;2023-04-03T12:30:21;103310.00;;;9.35;38.31
78562;BME280;68963;52.138;5.446;2023-04-03T12:32:57;103298.03;;;9.42;38.97
78562;BME280;68963;52.138;5.446;2023-04-03T12:46:42;103285.16;;;9.50;40.09
78562;BME280;68963;52.138;5.446;2023-04-03T12:49:37;103286.44;;;9.67;38.87
78562;BME280;68963;52.138;5.446;2023-04-03T12:52:19;103285.13;;;9.61;37.11
78562;BME280;68963;52.138;5.446;2023-04-03T12:54:47;103280.56;;;9.63;36.72
78562;BME280;68963;52.138;5.446;2023-04-03T12:57:24;103275.69;;;9.59;36.88
78562;BME280;68963;52.138;5.446;2023-04-03T12:59:51;103273.75;;;9.61;36.93
78562;BME280;68963;52.138;5.446;2023-04-03T13:04:58;103268.97;;;9.66;37.40
78562;BME280;68963;52.138;5.446;2023-04-03T13:07:30;103261.31;;;9.74;38.55
78562;BME280;68963;52.138;5.446;2023-04-03T13:12:49;103257.94;;;9.95;38.01
78562;BME280;68963;52.138;5.446;2023-04-03T13:15:27;103260.28;;;10.09;37.29
78562;BME280;68963;52.138;5.446;2023-04-03T13:17:54;103252.94;;;10.12;37.21
78562;BME280;68963;52.138;5.446;2023-04-03T13:20:27;103259.16;;;10.11;36.29
78562;BME280;68963;52.138;5.446;2023-04-03T13:22:58;103247.47;;;10.04;37.63
78562;BME280;68963;52.138;5.446;2023-04-03T13:25:29;103259.63;;;10.28;38.67
78562;BME280;68963;52.138;5.446;2023-04-03T13:27:59;103246.19;;;10.20;38.22
78562;BME280;68963;52.138;5.446;2023-04-03T13:30:41;103242.88;;;10.18;37.82
78562;BME280;68963;52.138;5.446;2023-04-03T13:33:21;103253.41;;;10.29;39.67
78562;BME280;68963;52.138;5.446;2023-04-03T13:35:55;103254.38;;;10.28;37.91
78562;BME280;68963;52.138;5.446;2023-04-03T13:38:26;103248.31;;;10.37;37.56
78562;BME280;68963;52.138;5.446;2023-04-03T13:40:56;103251.00;;;10.26;35.81
78562;BME280;68963;52.138;5.446;2023-04-03T13:43:29;103244.13;;;10.02;36.51
78562;BME280;68963;52.138;5.446;2023-04-03T13:46:23;103248.38;;;10.26;38.70
78562;BME280;68963;52.138;5.446;2023-04-03T13:48:52;103255.06;;;10.30;37.83
78562;BME280;68963;52.138;5.446;2023-04-03T13:51:28;103259.25;;;10.21;38.77
78562;BME280;68963;52.138;5.446;2023-04-03T13:54:00;103252.03;;;10.34;37.49
78562;BME280;68963;52.138;5.446;2023-04-03T13:56:33;103251.69;;;10.39;38.25
78562;BME280;68963;52.138;5.446;2023-04-03T14:01:42;103249.53;;;10.33;36.33
78562;BME280;68963;52.138;5.446;2023-04-03T14:04:13;103239.59;;;10.36;37.38
78562;BME280;68963;52.138;5.446;2023-04-03T14:06:41;103234.78;;;10.62;39.11
78562;BME280;68963;52.138;5.446;2023-04-03T14:09:07;103233.69;;;10.65;36.63
78562;BME280;68963;52.138;5.446;2023-04-03T14:11:34;103235.63;;;10.42;38.29
78562;BME280;68963;52.138;5.446;2023-04-03T14:14:10;103232.59;;;10.47;38.09
78562;BME280;68963;52.138;5.446;2023-04-03T14:16:42;103224.88;;;10.55;37.05
78562;BME280;68963;52.138;5.446;2023-04-03T14:19:24;103224.47;;;10.59;37.00
78562;BME280;68963;52.138;5.446;2023-04-03T14:21:52;103218.72;;;10.66;39.34
78562;BME280;68963;52.138;5.446;2023-04-03T14:24:20;103214.41;;;10.64;36.76
78562;BME280;68963;52.138;5.446;2023-04-03T14:26:50;103207.00;;;10.58;36.95
78562;BME280;68963;52.138;5.446;2023-04-03T14:29:17;103208.03;;;10.67;38.73
78562;BME280;68963;52.138;5.446;2023-04-03T14:31:45;103202.97;;;10.75;37.64
78562;BME280;68963;52.138;5.446;2023-04-03T14:34:13;103206.94;;;10.70;37.81
78562;BME280;68963;52.138;5.446;2023-04-03T14:36:44;103202.16;;;10.63;36.73
78562;BME280;68963;52.138;5.446;2023-04-03T14:39:17;103202.06;;;10.65;37.34
78562;BME280;68963;52.138;5.446;2023-04-03T14:41:45;103201.88;;;10.57;37.14
78562;BME280;68963;52.138;5.446;2023-04-03T14:44:11;103197.88;;;10.62;36.38
78562;BME280;68963;52.138;5.446;2023-04-03T14:46:41;103196.47;;;10.58;37.54
78562;BME280;68963;52.138;5.446;2023-04-03T14:49:25;103196.91;;;10.63;38.26
78562;BME280;68963;52.138;5.446;2023-04-03T14:51:52;103200.69;;;10.71;37.47
78562;BME280;68963;52.138;5.446;2023-04-03T14:54:21;103183.63;;;10.65;36.96
78562;BME280;68963;52.138;5.446;2023-04-03T14:56:53;103190.47;;;10.56;36.23
78562;BME280;68963;52.138;5.446;2023-04-03T14:59:20;103196.69;;;10.46;36.87
78562;BME280;68963;52.138;5.446;2023-04-03T15:01:48;103179.13;;;10.35;36.13
78562;BME280;68963;52.138;5.446;2023-04-03T15:04:18;103186.50;;;10.41;36.10
78562;BME280;68963;52.138;5.446;2023-04-03T15:06:45;103197.00;;;10.31;38.26
78562;BME280;68963;52.138;5.446;2023-04-03T15:09:30;103202.47;;;10.39;38.69
78562;BME280;68963;52.138;5.446;2023-04-03T15:11:56;103190.19;;;10.29;36.69
78562;BME280;68963;52.138;5.446;2023-04-03T15:14:23;103186.09;;;10.25;37.37